Jorge Newbery Airpark


Codes: SABE/AEP
Name: Jorge Newbery Airpark
City: Buenos Aires
Country: Argentina
Elevation: 18 ft.
Wikipedia:

Photos at Jorge Newbery Airpark


   Photos courtesy of SpottingLog. You can add your own sightings and photos by signing up for a free trial today.



LV-BRA, 11-Feb-2014
© Luis Vaz

LV-CID, 11-Feb-2014
© Luis Vaz

LV-CDY, 11-Feb-2014
© Luis Vaz

LV-BYY, 11-Feb-2014
© Luis Vaz

LV-BAW, 11-Feb-2014
© Luis Vaz

LV-GOO, 11-Feb-2014
© Luis Vaz

LV-CVX, 11-Feb-2014
© Luis Vaz

LV-BTM, 11-Feb-2014
© Luis Vaz

LV-CJG, 11-Feb-2014
© Luis Vaz

PR-MBP, 11-Feb-2014
© Luis Vaz

LV-ZPZ, 11-Feb-2014
© Luis Vaz

LV-FPT, 11-Feb-2014
© Luis Vaz


Weather at Jorge Newbery Airpark


Time (UTC)DescriptionTempratureWindCloud coverageVisibilityPressureHumidity
25-Jun-2024 12:00Scattered Clouds6°C9 mph, SE29%10000m1026hPa85%
25-Jun-2024 15:00Scattered Clouds7°C9 mph, SE32%10000m1027hPa79%
25-Jun-2024 18:00Light Rain9°C7 mph, E53%10000m1026hPa71%
25-Jun-2024 21:00Overcast Clouds10°C7 mph, E100%10000m1026hPa64%
26-Jun-2024 00:00Overcast Clouds10°C7 mph, NE100%10000m1026hPa64%
26-Jun-2024 03:00Light Rain10°C7 mph, N100%10000m1025hPa68%
26-Jun-2024 06:00Light Rain9°C9 mph, NW100%10000m1024hPa82%
26-Jun-2024 09:00Light Rain8°C7 mph, NW76%10000m1022hPa80%
26-Jun-2024 12:00Light Rain9°C11 mph, NW88%10000m1022hPa84%
26-Jun-2024 15:00Light Rain10°C13 mph, NW100%10000m1021hPa73%
26-Jun-2024 18:00Overcast Clouds12°C16 mph, NW96%10000m1017hPa60%
26-Jun-2024 21:00Broken Clouds12°C16 mph, NW62%10000m1015hPa61%
27-Jun-2024 00:00Broken Clouds11°C20 mph, NW65%10000m1014hPa60%
27-Jun-2024 03:00Broken Clouds11°C20 mph, NW79%10000m1014hPa59%
27-Jun-2024 06:00Scattered Clouds11°C18 mph, NW40%10000m1012hPa60%
27-Jun-2024 09:00Scattered Clouds10°C16 mph, NW35%10000m1011hPa59%
27-Jun-2024 12:00Few Clouds10°C16 mph, NW20%10000m1012hPa57%
27-Jun-2024 15:00Clear Sky13°C13 mph, NW2%10000m1011hPa50%
27-Jun-2024 18:00Clear Sky16°C11 mph, NW4%10000m1007hPa50%
27-Jun-2024 21:00Clear Sky15°C9 mph, NW10%10000m1005hPa58%
28-Jun-2024 00:00Few Clouds13°C13 mph, NW11%10000m1006hPa67%
28-Jun-2024 03:00Broken Clouds12°C9 mph, NW60%10000m1006hPa68%
28-Jun-2024 06:00Broken Clouds12°C11 mph, W80%10000m1007hPa64%
28-Jun-2024 09:00Overcast Clouds12°C16 mph, SW100%10000m1009hPa59%
28-Jun-2024 12:00Overcast Clouds10°C18 mph, S94%10000m1014hPa74%
28-Jun-2024 15:00Broken Clouds11°C16 mph, S72%10000m1017hPa62%
28-Jun-2024 18:00Broken Clouds11°C13 mph, S84%10000m1019hPa56%
28-Jun-2024 21:00Light Rain10°C11 mph, SW100%10000m1021hPa61%
29-Jun-2024 00:00Overcast Clouds10°C11 mph, SW100%10000m1023hPa63%
29-Jun-2024 03:00Scattered Clouds8°C11 mph, SW39%10000m1024hPa64%
29-Jun-2024 06:00Few Clouds7°C13 mph, SW22%10000m1025hPa61%
29-Jun-2024 09:00Clear Sky6°C13 mph, SW0%10000m1026hPa67%
29-Jun-2024 12:00Clear Sky6°C13 mph, SW0%10000m1028hPa67%
29-Jun-2024 15:00Clear Sky8°C13 mph, SW0%10000m1028hPa56%
29-Jun-2024 18:00Clear Sky9°C13 mph, SW3%10000m1027hPa48%
29-Jun-2024 21:00Clear Sky9°C11 mph, SW5%10000m1027hPa51%
30-Jun-2024 00:00Clear Sky8°C9 mph, SW3%10000m1028hPa56%
30-Jun-2024 03:00Clear Sky7°C9 mph, SW0%10000m1028hPa59%
30-Jun-2024 06:00Clear Sky6°C9 mph, SW0%10000m1028hPa62%
30-Jun-2024 09:00Clear Sky5°C7 mph, SW9%10000m1027hPa63%